sensor_id;sensor_type;location;lat;lon;timestamp;temperature;humidity
13610;DHT22;6876;50.788;4.940;2023-05-20T00:02:06;13.80;40.80
13610;DHT22;6876;50.788;4.940;2023-05-20T00:04:54;13.80;40.70
13610;DHT22;6876;50.788;4.940;2023-05-20T00:07:41;13.80;39.90
13610;DHT22;6876;50.788;4.940;2023-05-20T00:10:28;13.70;41.10
13610;DHT22;6876;50.788;4.940;2023-05-20T00:13:15;13.70;41.70
13610;DHT22;6876;50.788;4.940;2023-05-20T00:16:04;13.70;45.70
13610;DHT22;6876;50.788;4.940;2023-05-20T00:18:52;13.70;99.90
13610;DHT22;6876;50.788;4.940;2023-05-20T00:21:39;13.70;93.30
13610;DHT22;6876;50.788;4.940;2023-05-20T00:24:26;13.70;93.20
13610;DHT22;6876;50.788;4.940;2023-05-20T00:27:14;13.70;98.10
13610;DHT22;6876;50.788;4.940;2023-05-20T00:30:01;13.60;99.90
13610;DHT22;6876;50.788;4.940;2023-05-20T00:32:50;13.50;99.90
13610;DHT22;6876;50.788;4.940;2023-05-20T00:35:37;13.50;99.90
13610;DHT22;6876;50.788;4.940;2023-05-20T00:38:24;13.50;99.90
13610;DHT22;6876;50.788;4.940;2023-05-20T00:41:12;13.50;99.90
13610;DHT22;6876;50.788;4.940;2023-05-20T00:43:59;13.50;99.90
13610;DHT22;6876;50.788;4.940;2023-05-20T00:46:46;13.50;99.90
13610;DHT22;6876;50.788;4.940;2023-05-20T00:49:36;13.50;99.90
13610;DHT22;6876;50.788;4.940;2023-05-20T00:52:24;13.50;99.90
13610;DHT22;6876;50.788;4.940;2023-05-20T00:55:12;13.40;99.90
13610;DHT22;6876;50.788;4.940;2023-05-20T00:57:59;13.30;99.90
13610;DHT22;6876;50.788;4.940;2023-05-20T01:00:46;13.30;99.90
13610;DHT22;6876;50.788;4.940;2023-05-20T01:03:34;13.30;99.90
13610;DHT22;6876;50.788;4.940;2023-05-20T01:06:22;13.20;99.90
13610;DHT22;6876;50.788;4.940;2023-05-20T01:09:10;13.30;99.90
13610;DHT22;6876;50.788;4.940;2023-05-20T01:12:02;13.30;99.90
13610;DHT22;6876;50.788;4.940;2023-05-20T01:14:57;13.30;99.90
13610;DHT22;6876;50.788;4.940;2023-05-20T01:17:46;13.30;99.90
13610;DHT22;6876;50.788;4.940;2023-05-20T01:20:34;13.20;99.90
13610;DHT22;6876;50.788;4.940;2023-05-20T01:23:31;13.20;99.90
13610;DHT22;6876;50.788;4.940;2023-05-20T01:26:18;13.10;99.90
13610;DHT22;6876;50.788;4.940;2023-05-20T01:29:06;13.10;99.90
13610;DHT22;6876;50.788;4.940;2023-05-20T01:31:55;13.10;99.90
13610;DHT22;6876;50.788;4.940;2023-05-20T01:34:43;13.00;99.90
13610;DHT22;6876;50.788;4.940;2023-05-20T01:37:31;12.90;99.90
13610;DHT22;6876;50.788;4.940;2023-05-20T01:40:22;12.80;99.90
13610;DHT22;6876;50.788;4.940;2023-05-20T01:43:10;12.70;99.90
13610;DHT22;6876;50.788;4.940;2023-05-20T01:45:58;12.70;99.90
13610;DHT22;6876;50.788;4.940;2023-05-20T01:48:47;12.70;99.90
13610;DHT22;6876;50.788;4.940;2023-05-20T01:51:35;12.70;99.90
13610;DHT22;6876;50.788;4.940;2023-05-20T01:54:22;12.60;99.90
13610;DHT22;6876;50.788;4.940;2023-05-20T01:57:11;12.60;99.90
13610;DHT22;6876;50.788;4.940;2023-05-20T01:59:59;12.50;99.90
13610;DHT22;6876;50.788;4.940;2023-05-20T02:02:47;12.50;99.90
13610;DHT22;6876;50.788;4.940;2023-05-20T02:05:34;12.50;99.90
13610;DHT22;6876;50.788;4.940;2023-05-20T02:08:21;12.40;99.90
13610;DHT22;6876;50.788;4.940;2023-05-20T02:11:09;12.40;1.00
13610;DHT22;6876;50.788;4.940;2023-05-20T02:13:57;12.40;1.00
13610;DHT22;6876;50.788;4.940;2023-05-20T02:16:45;12.30;1.00
13610;DHT22;6876;50.788;4.940;2023-05-20T02:19:33;12.30;1.00
13610;DHT22;6876;50.788;4.940;2023-05-20T02:22:20;12.30;1.00
13610;DHT22;6876;50.788;4.940;2023-05-20T02:25:08;12.20;1.00
13610;DHT22;6876;50.788;4.940;2023-05-20T02:27:56;12.20;1.00
13610;DHT22;6876;50.788;4.940;2023-05-20T02:30:44;12.20;1.00
13610;DHT22;6876;50.788;4.940;2023-05-20T02:33:32;12.10;1.00
13610;DHT22;6876;50.788;4.940;2023-05-20T02:36:19;12.00;1.00
13610;DHT22;6876;50.788;4.940;2023-05-20T02:39:07;11.90;1.00
13610;DHT22;6876;50.788;4.940;2023-05-20T02:41:54;12.00;1.00
13610;DHT22;6876;50.788;4.940;2023-05-20T02:44:42;11.90;1.00
13610;DHT22;6876;50.788;4.940;2023-05-20T02:47:30;11.90;3.30
13610;DHT22;6876;50.788;4.940;2023-05-20T02:50:17;11.80;27.00
13610;DHT22;6876;50.788;4.940;2023-05-20T02:53:05;11.80;99.90
13610;DHT22;6876;50.788;4.940;2023-05-20T02:55:52;11.70;99.90
13610;DHT22;6876;50.788;4.940;2023-05-20T02:58:39;11.70;99.90
13610;DHT22;6876;50.788;4.940;2023-05-20T03:01:27;11.60;99.90
13610;DHT22;6876;50.788;4.940;2023-05-20T03:04:16;11.70;99.90
13610;DHT22;6876;50.788;4.940;2023-05-20T03:07:06;11.70;99.90
13610;DHT22;6876;50.788;4.940;2023-05-20T03:09:54;11.70;99.90
13610;DHT22;6876;50.788;4.940;2023-05-20T03:12:43;11.60;99.90
13610;DHT22;6876;50.788;4.940;2023-05-20T03:15:31;11.60;99.90
13610;DHT22;6876;50.788;4.940;2023-05-20T03:18:18;11.60;99.90
13610;DHT22;6876;50.788;4.940;2023-05-20T03:21:07;11.50;99.90
13610;DHT22;6876;50.788;4.940;2023-05-20T03:23:54;11.50;99.90
13610;DHT22;6876;50.788;4.940;2023-05-20T03:26:41;11.50;1.00
13610;DHT22;6876;50.788;4.940;2023-05-20T03:29:28;11.40;1.00
13610;DHT22;6876;50.788;4.940;2023-05-20T03:32:16;11.50;1.00
13610;DHT22;6876;50.788;4.940;2023-05-20T03:35:04;11.40;83.00
13610;DHT22;6876;50.788;4.940;2023-05-20T03:37:53;11.40;99.90
13610;DHT22;6876;50.788;4.940;2023-05-20T03:40:40;11.30;99.90
13610;DHT22;6876;50.788;4.940;2023-05-20T03:43:27;11.30;1.00
13610;DHT22;6876;50.788;4.940;2023-05-20T03:46:15;11.30;1.00
13610;DHT22;6876;50.788;4.940;2023-05-20T03:49:02;11.30;1.00
13610;DHT22;6876;50.788;4.940;2023-05-20T03:51:50;11.30;1.00
13610;DHT22;6876;50.788;4.940;2023-05-20T03:54:39;11.30;1.00
13610;DHT22;6876;50.788;4.940;2023-05-20T03:57:26;11.30;1.00
13610;DHT22;6876;50.788;4.940;2023-05-20T04:00:14;11.30;99.90
13610;DHT22;6876;50.788;4.940;2023-05-20T04:03:02;11.30;99.90
13610;DHT22;6876;50.788;4.940;2023-05-20T04:05:51;11.30;99.90
13610;DHT22;6876;50.788;4.940;2023-05-20T04:08:38;11.40;99.90
13610;DHT22;6876;50.788;4.940;2023-05-20T04:11:27;11.40;99.90
13610;DHT22;6876;50.788;4.940;2023-05-20T04:14:14;11.40;99.90
13610;DHT22;6876;50.788;4.940;2023-05-20T04:17:02;11.50;99.90
13610;DHT22;6876;50.788;4.940;2023-05-20T04:19:50;11.60;99.90
13610;DHT22;6876;50.788;4.940;2023-05-20T04:22:37;11.60;99.90
13610;DHT22;6876;50.788;4.940;2023-05-20T04:25:25;11.60;99.90
13610;DHT22;6876;50.788;4.940;2023-05-20T04:28:14;11.60;99.90
13610;DHT22;6876;50.788;4.940;2023-05-20T04:31:02;11.70;99.90
13610;DHT22;6876;50.788;4.940;2023-05-20T04:33:50;11.80;99.90
13610;DHT22;6876;50.788;4.940;2023-05-20T04:36:37;12.10;99.90
13610;DHT22;6876;50.788;4.940;2023-05-20T04:39:25;13.00;52.10
13610;DHT22;6876;50.788;4.940;2023-05-20T04:42:12;13.70;99.90
13610;DHT22;6876;50.788;4.940;2023-05-20T04:45:01;14.40;57.60
13610;DHT22;6876;50.788;4.940;2023-05-20T04:47:50;14.80;1.00
13610;DHT22;6876;50.788;4.940;2023-05-20T04:50:38;15.20;1.00
13610;DHT22;6876;50.788;4.940;2023-05-20T04:53:26;15.40;1.00
13610;DHT22;6876;50.788;4.940;2023-05-20T04:56:15;15.90;1.00
13610;DHT22;6876;50.788;4.940;2023-05-20T04:59:02;16.20;1.00
13610;DHT22;6876;50.788;4.940;2023-05-20T05:01:51;16.60;1.00
13610;DHT22;6876;50.788;4.940;2023-05-20T05:04:38;16.80;1.00
13610;DHT22;6876;50.788;4.940;2023-05-20T05:07:26;17.40;1.00
13610;DHT22;6876;50.788;4.940;2023-05-20T05:10:13;17.60;1.00
13610;DHT22;6876;50.788;4.940;2023-05-20T05:13:01;18.10;99.90
13610;DHT22;6876;50.788;4.940;2023-05-20T05:15:57;18.30;99.90
13610;DHT22;6876;50.788;4.940;2023-05-20T05:18:45;18.20;99.90
13610;DHT22;6876;50.788;4.940;2023-05-20T05:21:33;18.30;99.90
13610;DHT22;6876;50.788;4.940;2023-05-20T05:24:20;18.20;99.90
13610;DHT22;6876;50.788;4.940;2023-05-20T05:27:07;18.60;99.90
13610;DHT22;6876;50.788;4.940;2023-05-20T05:29:55;18.70;99.90
13610;DHT22;6876;50.788;4.940;2023-05-20T05:32:42;19.10;99.90
13610;DHT22;6876;50.788;4.940;2023-05-20T05:35:31;19.20;99.90
13610;DHT22;6876;50.788;4.940;2023-05-20T05:38:19;19.20;99.90
13610;DHT22;6876;50.788;4.940;2023-05-20T05:41:06;19.60;99.90
13610;DHT22;6876;50.788;4.940;2023-05-20T05:43:53;19.80;99.90
13610;DHT22;6876;50.788;4.940;2023-05-20T05:46:41;20.20;99.90
13610;DHT22;6876;50.788;4.940;2023-05-20T05:49:28;20.20;99.90
13610;DHT22;6876;50.788;4.940;2023-05-20T05:52:17;20.10;99.90
13610;DHT22;6876;50.788;4.940;2023-05-20T05:55:05;20.10;99.90
13610;DHT22;6876;50.788;4.940;2023-05-20T05:57:52;20.40;99.90
13610;DHT22;6876;50.788;4.940;2023-05-20T06:00:40;20.50;99.90
13610;DHT22;6876;50.788;4.940;2023-05-20T06:03:27;20.90;99.90
13610;DHT22;6876;50.788;4.940;2023-05-20T06:06:14;20.70;99.90
13610;DHT22;6876;50.788;4.940;2023-05-20T06:09:03;20.90;99.90
13610;DHT22;6876;50.788;4.940;2023-05-20T06:11:50;21.30;99.90
13610;DHT22;6876;50.788;4.940;2023-05-20T06:14:38;21.40;99.90
13610;DHT22;6876;50.788;4.940;2023-05-20T06:17:25;21.20;99.90
13610;DHT22;6876;50.788;4.940;2023-05-20T06:20:13;21.60;99.90
13610;DHT22;6876;50.788;4.940;2023-05-20T06:23:00;21.90;99.90
13610;DHT22;6876;50.788;4.940;2023-05-20T06:25:49;21.90;99.90
13610;DHT22;6876;50.788;4.940;2023-05-20T06:28:38;21.90;99.90
13610;DHT22;6876;50.788;4.940;2023-05-20T06:31:25;22.60;99.90
13610;DHT22;6876;50.788;4.940;2023-05-20T06:34:12;22.80;99.90
13610;DHT22;6876;50.788;4.940;2023-05-20T06:37:00;23.20;99.90
13610;DHT22;6876;50.788;4.940;2023-05-20T06:39:47;23.10;99.90
13610;DHT22;6876;50.788;4.940;2023-05-20T06:42:39;23.00;99.90
13610;DHT22;6876;50.788;4.940;2023-05-20T06:45:27;23.60;99.90
13610;DHT22;6876;50.788;4.940;2023-05-20T06:48:14;23.90;99.90
13610;DHT22;6876;50.788;4.940;2023-05-20T06:51:02;24.00;99.90
13610;DHT22;6876;50.788;4.940;2023-05-20T06:53:49;23.90;99.90
13610;DHT22;6876;50.788;4.940;2023-05-20T06:56:37;23.80;99.90
13610;DHT22;6876;50.788;4.940;2023-05-20T06:59:26;23.80;99.90
13610;DHT22;6876;50.788;4.940;2023-05-20T07:02:14;24.10;99.90
13610;DHT22;6876;50.788;4.940;2023-05-20T07:05:01;23.80;99.90
13610;DHT22;6876;50.788;4.940;2023-05-20T07:07:49;24.40;99.90
13610;DHT22;6876;50.788;4.940;2023-05-20T07:10:36;24.60;99.90
13610;DHT22;6876;50.788;4.940;2023-05-20T07:13:24;24.70;99.90
13610;DHT22;6876;50.788;4.940;2023-05-20T07:16:13;24.80;99.90
13610;DHT22;6876;50.788;4.940;2023-05-20T07:19:00;25.20;99.90
13610;DHT22;6876;50.788;4.940;2023-05-20T07:21:47;24.90;99.90
13610;DHT22;6876;50.788;4.940;2023-05-20T07:24:35;25.20;97.80
13610;DHT22;6876;50.788;4.940;2023-05-20T07:27:23;25.30;78.00
13610;DHT22;6876;50.788;4.940;2023-05-20T07:30:10;24.90;75.30
13610;DHT22;6876;50.788;4.940;2023-05-20T07:32:59;24.20;50.50
13610;DHT22;6876;50.788;4.940;2023-05-20T07:35:46;24.40;84.20
13610;DHT22;6876;50.788;4.940;2023-05-20T07:38:33;24.80;64.50
13610;DHT22;6876;50.788;4.940;2023-05-20T07:41:21;25.20;52.80
13610;DHT22;6876;50.788;4.940;2023-05-20T07:44:08;25.10;46.70
13610;DHT22;6876;50.788;4.940;2023-05-20T07:46:56;25.40;46.60
13610;DHT22;6876;50.788;4.940;2023-05-20T07:49:44;25.60;46.80
13610;DHT22;6876;50.788;4.940;2023-05-20T07:52:32;25.60;47.10
13610;DHT22;6876;50.788;4.940;2023-05-20T07:55:19;25.20;46.10
13610;DHT22;6876;50.788;4.940;2023-05-20T07:58:06;25.10;47.80
13610;DHT22;6876;50.788;4.940;2023-05-20T08:00:54;24.90;47.00
13610;DHT22;6876;50.788;4.940;2023-05-20T08:03:41;24.40;46.10
13610;DHT22;6876;50.788;4.940;2023-05-20T08:06:30;24.20;46.80
13610;DHT22;6876;50.788;4.940;2023-05-20T08:09:18;24.40;45.50
13610;DHT22;6876;50.788;4.940;2023-05-20T08:12:05;25.20;47.10
13610;DHT22;6876;50.788;4.940;2023-05-20T08:14:53;25.50;47.10
13610;DHT22;6876;50.788;4.940;2023-05-20T08:17:40;25.40;47.00
13610;DHT22;6876;50.788;4.940;2023-05-20T08:20:28;25.40;46.70
13610;DHT22;6876;50.788;4.940;2023-05-20T08:23:17;26.20;47.90
13610;DHT22;6876;50.788;4.940;2023-05-20T08:26:04;25.80;47.00
13610;DHT22;6876;50.788;4.940;2023-05-20T08:28:51;25.90;45.70
13610;DHT22;6876;50.788;4.940;2023-05-20T08:31:39;25.80;46.30
13610;DHT22;6876;50.788;4.940;2023-05-20T08:34:27;26.10;70.90
13610;DHT22;6876;50.788;4.940;2023-05-20T08:37:14;26.00;46.10
13610;DHT22;6876;50.788;4.940;2023-05-20T08:40:04;26.40;47.40
13610;DHT22;6876;50.788;4.940;2023-05-20T08:42:51;26.40;46.40
13610;DHT22;6876;50.788;4.940;2023-05-20T08:45:38;25.70;46.50
13610;DHT22;6876;50.788;4.940;2023-05-20T08:48:26;25.40;44.80
13610;DHT22;6876;50.788;4.940;2023-05-20T08:51:15;26.10;45.50
13610;DHT22;6876;50.788;4.940;2023-05-20T08:54:04;26.30;46.30
13610;DHT22;6876;50.788;4.940;2023-05-20T08:56:53;26.10;47.20
13610;DHT22;6876;50.788;4.940;2023-05-20T08:59:41;26.40;46.40
13610;DHT22;6876;50.788;4.940;2023-05-20T09:02:30;26.10;47.00
13610;DHT22;6876;50.788;4.940;2023-05-20T09:05:17;26.40;46.40
13610;DHT22;6876;50.788;4.940;2023-05-20T09:08:05;26.30;45.70
13610;DHT22;6876;50.788;4.940;2023-05-20T09:10:53;26.50;48.00
13610;DHT22;6876;50.788;4.940;2023-05-20T09:13:42;26.10;48.10
13610;DHT22;6876;50.788;4.940;2023-05-20T09:16:29;26.10;48.20
13610;DHT22;6876;50.788;4.940;2023-05-20T09:19:16;26.00;47.70
13610;DHT22;6876;50.788;4.940;2023-05-20T09:22:04;26.20;47.00
13610;DHT22;6876;50.788;4.940;2023-05-20T09:24:52;26.70;47.50
13610;DHT22;6876;50.788;4.940;2023-05-20T09:27:39;26.80;48.80
13610;DHT22;6876;50.788;4.940;2023-05-20T09:30:28;27.10;48.00
13610;DHT22;6876;50.788;4.940;2023-05-20T09:33:18;26.60;48.20
13610;DHT22;6876;50.788;4.940;2023-05-20T09:36:07;26.90;48.10
13610;DHT22;6876;50.788;4.940;2023-05-20T09:38:59;26.40;47.90
13610;DHT22;6876;50.788;4.940;2023-05-20T09:41:52;26.60;48.00
13610;DHT22;6876;50.788;4.940;2023-05-20T09:44:41;25.90;47.10
13610;DHT22;6876;50.788;4.940;2023-05-20T09:47:31;25.20;46.70
13610;DHT22;6876;50.788;4.940;2023-05-20T09:50:20;25.40;47.90
13610;DHT22;6876;50.788;4.940;2023-05-20T09:53:08;25.60;47.20
13610;DHT22;6876;50.788;4.940;2023-05-20T09:55:57;25.80;47.90
13610;DHT22;6876;50.788;4.940;2023-05-20T09:58:45;25.20;48.70
13610;DHT22;6876;50.788;4.940;2023-05-20T10:01:34;25.40;47.30
13610;DHT22;6876;50.788;4.940;2023-05-20T10:04:23;25.00;47.90
13610;DHT22;6876;50.788;4.940;2023-05-20T10:07:26;24.90;48.60
13610;DHT22;6876;50.788;4.940;2023-05-20T10:10:24;25.10;47.80
13610;DHT22;6876;50.788;4.940;2023-05-20T10:13:38;24.70;47.50
13610;DHT22;6876;50.788;4.940;2023-05-20T10:16:37;24.70;48.20
13610;DHT22;6876;50.788;4.940;2023-05-20T10:19:32;25.20;48.50
13610;DHT22;6876;50.788;4.940;2023-05-20T10:22:26;25.30;48.70
13610;DHT22;6876;50.788;4.940;2023-05-20T10:25:23;25.40;48.20
13610;DHT22;6876;50.788;4.940;2023-05-20T10:28:11;25.20;47.50
13610;DHT22;6876;50.788;4.940;2023-05-20T10:30:59;25.30;49.00
13610;DHT22;6876;50.788;4.940;2023-05-20T10:33:47;25.70;48.80
13610;DHT22;6876;50.788;4.940;2023-05-20T10:36:36;25.60;49.10
13610;DHT22;6876;50.788;4.940;2023-05-20T10:39:25;25.70;49.50
13610;DHT22;6876;50.788;4.940;2023-05-20T10:42:13;25.50;48.60
13610;DHT22;6876;50.788;4.940;2023-05-20T10:45:01;25.60;49.20
13610;DHT22;6876;50.788;4.940;2023-05-20T10:47:53;25.30;49.10
13610;DHT22;6876;50.788;4.940;2023-05-20T10:50:41;25.00;49.10
13610;DHT22;6876;50.788;4.940;2023-05-20T10:53:38;24.60;50.40
13610;DHT22;6876;50.788;4.940;2023-05-20T10:56:26;24.60;49.50
13610;DHT22;6876;50.788;4.940;2023-05-20T10:59:13;25.00;49.90
13610;DHT22;6876;50.788;4.940;2023-05-20T11:02:01;25.40;50.70
13610;DHT22;6876;50.788;4.940;2023-05-20T11:04:49;25.20;48.80
13610;DHT22;6876;50.788;4.940;2023-05-20T11:07:37;25.00;49.70
13610;DHT22;6876;50.788;4.940;2023-05-20T11:10:25;24.70;50.20
13610;DHT22;6876;50.788;4.940;2023-05-20T11:13:13;24.30;49.20
13610;DHT22;6876;50.788;4.940;2023-05-20T11:16:01;24.30;50.80
13610;DHT22;6876;50.788;4.940;2023-05-20T11:18:49;24.30;49.10
13610;DHT22;6876;50.788;4.940;2023-05-20T11:21:42;24.20;49.50
13610;DHT22;6876;50.788;4.940;2023-05-20T11:24:29;24.30;50.40
13610;DHT22;6876;50.788;4.940;2023-05-20T11:27:19;24.00;48.10
13610;DHT22;6876;50.788;4.940;2023-05-20T11:30:07;23.80;50.60
13610;DHT22;6876;50.788;4.940;2023-05-20T11:32:57;23.80;49.40
13610;DHT22;6876;50.788;4.940;2023-05-20T11:35:46;23.80;49.80
13610;DHT22;6876;50.788;4.940;2023-05-20T11:38:34;23.80;49.70
13610;DHT22;6876;50.788;4.940;2023-05-20T11:41:23;23.90;48.80
13610;DHT22;6876;50.788;4.940;2023-05-20T11:44:12;24.10;50.10
13610;DHT22;6876;50.788;4.940;2023-05-20T11:47:00;24.00;50.60
13610;DHT22;6876;50.788;4.940;2023-05-20T11:49:48;23.70;48.70
13610;DHT22;6876;50.788;4.940;2023-05-20T11:52:35;23.50;50.10
13610;DHT22;6876;50.788;4.940;2023-05-20T11:55:23;23.70;49.30
13610;DHT22;6876;50.788;4.940;2023-05-20T11:58:10;23.70;48.90
13610;DHT22;6876;50.788;4.940;2023-05-20T12:00:59;23.70;51.40
13610;DHT22;6876;50.788;4.940;2023-05-20T12:03:46;23.70;50.00
13610;DHT22;6876;50.788;4.940;2023-05-20T12:06:34;23.30;50.40
13610;DHT22;6876;50.788;4.940;2023-05-20T12:09:22;23.40;49.40
13610;DHT22;6876;50.788;4.940;2023-05-20T12:12:09;23.00;48.50
13610;DHT22;6876;50.788;4.940;2023-05-20T12:14:58;23.20;50.20
13610;DHT22;6876;50.788;4.940;2023-05-20T12:17:48;23.30;50.20
13610;DHT22;6876;50.788;4.940;2023-05-20T12:20:36;23.30;49.70
13610;DHT22;6876;50.788;4.940;2023-05-20T12:23:23;23.20;49.40
13610;DHT22;6876;50.788;4.940;2023-05-20T12:26:11;23.50;51.50
13610;DHT22;6876;50.788;4.940;2023-05-20T12:28:58;23.50;49.50
13610;DHT22;6876;50.788;4.940;2023-05-20T12:31:45;23.40;49.20
13610;DHT22;6876;50.788;4.940;2023-05-20T12:34:34;23.50;51.40
13610;DHT22;6876;50.788;4.940;2023-05-20T12:37:22;23.60;50.00
13610;DHT22;6876;50.788;4.940;2023-05-20T12:40:10;23.80;50.70
13610;DHT22;6876;50.788;4.940;2023-05-20T12:42:59;23.40;50.10
13610;DHT22;6876;50.788;4.940;2023-05-20T12:45:46;23.30;50.40
13610;DHT22;6876;50.788;4.940;2023-05-20T12:48:34;23.40;49.10
13610;DHT22;6876;50.788;4.940;2023-05-20T12:51:23;24.00;51.40
13610;DHT22;6876;50.788;4.940;2023-05-20T12:54:10;23.80;50.80
13610;DHT22;6876;50.788;4.940;2023-05-20T12:56:57;23.50;50.10
13610;DHT22;6876;50.788;4.940;2023-05-20T12:59:45;23.00;48.70
13610;DHT22;6876;50.788;4.940;2023-05-20T13:02:32;23.00;49.70
13610;DHT22;6876;50.788;4.940;2023-05-20T13:05:20;23.20;51.40
13610;DHT22;6876;50.788;4.940;2023-05-20T13:08:09;23.60;49.10
13610;DHT22;6876;50.788;4.940;2023-05-20T13:10:57;23.70;50.50
13610;DHT22;6876;50.788;4.940;2023-05-20T13:13:44;23.80;51.70
13610;DHT22;6876;50.788;4.940;2023-05-20T13:16:32;23.40;49.90
13610;DHT22;6876;50.788;4.940;2023-05-20T13:19:19;23.00;51.00
13610;DHT22;6876;50.788;4.940;2023-05-20T13:22:07;22.90;51.70
13610;DHT22;6876;50.788;4.940;2023-05-20T13:24:56;23.40;52.60
13610;DHT22;6876;50.788;4.940;2023-05-20T13:27:43;23.40;50.80
13610;DHT22;6876;50.788;4.940;2023-05-20T13:30:30;23.20;50.70
13610;DHT22;6876;50.788;4.940;2023-05-20T13:33:18;22.90;50.90
13610;DHT22;6876;50.788;4.940;2023-05-20T13:36:06;23.20;53.20
13610;DHT22;6876;50.788;4.940;2023-05-20T13:38:53;23.20;51.80
13610;DHT22;6876;50.788;4.940;2023-05-20T13:41:42;23.20;50.40
13610;DHT22;6876;50.788;4.940;2023-05-20T13:44:29;22.90;50.80
13610;DHT22;6876;50.788;4.940;2023-05-20T13:47:16;22.70;51.10
13610;DHT22;6876;50.788;4.940;2023-05-20T13:50:05;22.70;54.40
13610;DHT22;6876;50.788;4.940;2023-05-20T13:52:52;23.20;57.30
13610;DHT22;6876;50.788;4.940;2023-05-20T13:55:40;23.50;56.30
13610;DHT22;6876;50.788;4.940;2023-05-20T13:58:29;23.50;49.40
13610;DHT22;6876;50.788;4.940;2023-05-20T14:01:20;23.40;51.70
13610;DHT22;6876;50.788;4.940;2023-05-20T14:04:08;23.10;50.20
13610;DHT22;6876;50.788;4.940;2023-05-20T14:06:56;23.20;52.00
13610;DHT22;6876;50.788;4.940;2023-05-20T14:09:46;23.40;51.60
13610;DHT22;6876;50.788;4.940;2023-05-20T14:12:33;23.30;52.60
13610;DHT22;6876;50.788;4.940;2023-05-20T14:15:22;23.20;51.30
13610;DHT22;6876;50.788;4.940;2023-05-20T14:18:15;23.10;51.90
13610;DHT22;6876;50.788;4.940;2023-05-20T14:21:02;23.30;52.50
13610;DHT22;6876;50.788;4.940;2023-05-20T14:23:50;23.40;51.70
13610;DHT22;6876;50.788;4.940;2023-05-20T14:26:37;23.40;52.90
13610;DHT22;6876;50.788;4.940;2023-05-20T14:29:24;23.30;54.20
13610;DHT22;6876;50.788;4.940;2023-05-20T14:32:16;23.10;53.20
13610;DHT22;6876;50.788;4.940;2023-05-20T14:35:04;23.00;52.30
13610;DHT22;6876;50.788;4.940;2023-05-20T14:37:52;22.60;52.40
13610;DHT22;6876;50.788;4.940;2023-05-20T14:40:39;22.40;51.30
13610;DHT22;6876;50.788;4.940;2023-05-20T14:43:26;22.30;53.50
13610;DHT22;6876;50.788;4.940;2023-05-20T14:46:14;22.20;51.70
13610;DHT22;6876;50.788;4.940;2023-05-20T14:49:03;22.20;51.70
13610;DHT22;6876;50.788;4.940;2023-05-20T14:51:50;22.30;53.20
13610;DHT22;6876;50.788;4.940;2023-05-20T14:54:37;22.40;51.90
13610;DHT22;6876;50.788;4.940;2023-05-20T14:57:25;22.50;52.00
13610;DHT22;6876;50.788;4.940;2023-05-20T15:00:12;22.60;53.20
13610;DHT22;6876;50.788;4.940;2023-05-20T15:03:00;22.60;52.40
13610;DHT22;6876;50.788;4.940;2023-05-20T15:05:50;22.70;52.40
13610;DHT22;6876;50.788;4.940;2023-05-20T15:08:37;22.60;53.70
13610;DHT22;6876;50.788;4.940;2023-05-20T15:11:24;22.60;51.50
13610;DHT22;6876;50.788;4.940;2023-05-20T15:14:12;22.20;51.80
13610;DHT22;6876;50.788;4.940;2023-05-20T15:16:59;21.80;50.40
13610;DHT22;6876;50.788;4.940;2023-05-20T15:19:46;21.60;51.40
13610;DHT22;6876;50.788;4.940;2023-05-20T15:22:35;21.80;51.40
13610;DHT22;6876;50.788;4.940;2023-05-20T15:25:22;21.80;51.10
13610;DHT22;6876;50.788;4.940;2023-05-20T15:28:10;22.00;52.10
13610;DHT22;6876;50.788;4.940;2023-05-20T15:30:57;22.10;52.00
13610;DHT22;6876;50.788;4.940;2023-05-20T15:33:47;22.10;52.40
13610;DHT22;6876;50.788;4.940;2023-05-20T15:36:34;22.00;51.70
13610;DHT22;6876;50.788;4.940;2023-05-20T15:39:23;22.10;54.10
13610;DHT22;6876;50.788;4.940;2023-05-20T15:42:11;22.00;53.10
13610;DHT22;6876;50.788;4.940;2023-05-20T15:44:59;22.00;53.60
13610;DHT22;6876;50.788;4.940;2023-05-20T15:47:46;22.10;50.90
13610;DHT22;6876;50.788;4.940;2023-05-20T15:50:34;21.80;52.40
13610;DHT22;6876;50.788;4.940;2023-05-20T15:53:22;21.50;51.10
13610;DHT22;6876;50.788;4.940;2023-05-20T15:56:11;21.40;52.20
13610;DHT22;6876;50.788;4.940;2023-05-20T15:58:59;21.50;54.40
13610;DHT22;6876;50.788;4.940;2023-05-20T16:01:46;21.40;56.70
13610;DHT22;6876;50.788;4.940;2023-05-20T16:04:33;21.60;51.90
13610;DHT22;6876;50.788;4.940;2023-05-20T16:07:21;21.50;52.80
13610;DHT22;6876;50.788;4.940;2023-05-20T16:10:09;21.90;53.60
13610;DHT22;6876;50.788;4.940;2023-05-20T16:12:58;22.10;53.80
13610;DHT22;6876;50.788;4.940;2023-05-20T16:15:45;22.00;52.40
13610;DHT22;6876;50.788;4.940;2023-05-20T16:18:34;21.50;51.30
13610;DHT22;6876;50.788;4.940;2023-05-20T16:21:22;21.30;53.20
13610;DHT22;6876;50.788;4.940;2023-05-20T16:24:11;21.50;54.40
13610;DHT22;6876;50.788;4.940;2023-05-20T16:26:58;21.50;55.00
13610;DHT22;6876;50.788;4.940;2023-05-20T16:29:48;21.50;59.80
13610;DHT22;6876;50.788;4.940;2023-05-20T16:32:35;21.50;74.90
13610;DHT22;6876;50.788;4.940;2023-05-20T16:35:23;21.30;65.50
13610;DHT22;6876;50.788;4.940;2023-05-20T16:38:10;21.10;87.40
13610;DHT22;6876;50.788;4.940;2023-05-20T16:40:57;21.20;67.60
13610;DHT22;6876;50.788;4.940;2023-05-20T16:43:45;21.00;72.60
13610;DHT22;6876;50.788;4.940;2023-05-20T16:46:33;20.90;84.60
13610;DHT22;6876;50.788;4.940;2023-05-20T16:49:21;20.80;92.70
13610;DHT22;6876;50.788;4.940;2023-05-20T16:52:08;20.70;98.00
13610;DHT22;6876;50.788;4.940;2023-05-20T16:54:56;20.70;99.90
13610;DHT22;6876;50.788;4.940;2023-05-20T16:57:47;20.60;99.90
13610;DHT22;6876;50.788;4.940;2023-05-20T17:00:35;20.60;99.90
13610;DHT22;6876;50.788;4.940;2023-05-20T17:03:24;20.60;99.90
13610;DHT22;6876;50.788;4.940;2023-05-20T17:06:11;20.70;99.90
13610;DHT22;6876;50.788;4.940;2023-05-20T17:08:59;20.60;99.90
13610;DHT22;6876;50.788;4.940;2023-05-20T17:11:47;20.60;99.90
13610;DHT22;6876;50.788;4.940;2023-05-20T17:14:35;20.50;99.90
13610;DHT22;6876;50.788;4.940;2023-05-20T17:17:23;20.60;99.90
13610;DHT22;6876;50.788;4.940;2023-05-20T17:20:12;20.70;99.90
13610;DHT22;6876;50.788;4.940;2023-05-20T17:22:59;20.70;99.90
13610;DHT22;6876;50.788;4.940;2023-05-20T17:25:47;20.70;99.90
13610;DHT22;6876;50.788;4.940;2023-05-20T17:28:34;20.60;99.90
13610;DHT22;6876;50.788;4.940;2023-05-20T17:31:21;20.60;99.90
13610;DHT22;6876;50.788;4.940;2023-05-20T17:34:09;20.40;99.90
13610;DHT22;6876;50.788;4.940;2023-05-20T17:36:57;20.40;99.90
13610;DHT22;6876;50.788;4.940;2023-05-20T17:39:44;20.40;99.90
13610;DHT22;6876;50.788;4.940;2023-05-20T17:42:32;20.30;99.90
13610;DHT22;6876;50.788;4.940;2023-05-20T17:45:19;20.30;99.90
13610;DHT22;6876;50.788;4.940;2023-05-20T17:48:06;20.30;99.90
13610;DHT22;6876;50.788;4.940;2023-05-20T17:50:54;20.40;99.90
13610;DHT22;6876;50.788;4.940;2023-05-20T17:53:44;20.40;99.90
13610;DHT22;6876;50.788;4.940;2023-05-20T17:56:31;20.40;99.90
13610;DHT22;6876;50.788;4.940;2023-05-20T17:59:19;20.40;99.90
13610;DHT22;6876;50.788;4.940;2023-05-20T18:02:06;20.30;99.90